Euro Snow — VQGH9 — position and weather

sailwx.info

Track history (hours):
 
Tides and Currents Weather Stations Pressure Air Temp Water Temp Dewpoint Dewpoint Depression Visibility Wind Speed Wind Dir Waves Ship Positions

Euro Snow

Last reported at 2016-Dec-06 11:22 UTC. Time now 2016-Dec-06 12:11 UTC.
Position N 50°43' E 000°50'.

Length 133 m; draft 6.3 m.

Type: Ship (hazmat cat A). MMSI: 235613000.

Date/timePositionNaut miles runAvg speedWind from/ knotsBaromVisibWave heightAir tempDewpointWater temp
2016-Dec-06 11:22N 50°43' E 000°50'1416.8
2016-Dec-06 10:32N 50°51' E 001°08'1818.5
2016-Dec-06 09:33N 51°03' E 001°30'1818.0
2016-Dec-06 08:33N 51°16' E 001°50'1716.8
2016-Dec-06 07:33N 51°29' E 002°05'1616.1
2016-Dec-06 06:33N 51°41' E 002°22'1616.0
2016-Dec-06 05:33N 51°53' E 002°39'1615.8
2016-Dec-06 04:33N 52°03' E 002°59'1716.9
2016-Dec-06 03:33N 52°04' E 003°27'1716.9
2016-Dec-06 02:33N 52°02' E 003°54'1515.1
2016-Dec-06 01:34N 51°55' E 004°15'7 6.3
2016-Dec-06 00:32N 51°53' E 004°26'0 0.0
2016-Dec-05 23:33N 51°53' E 004°26'0 0.0
2016-Dec-05 22:32N 51°53' E 004°26'0 0.0
2016-Dec-05 21:32N 51°53' E 004°26'0 0.0
2016-Dec-05 20:33N 51°53' E 004°26'0 0.0
2016-Dec-05 19:33N 51°53' E 004°26'0 0.0
2016-Dec-05 18:32N 51°53' E 004°26'0 0.0
2016-Dec-05 17:33N 51°53' E 004°26'0 0.0
2016-Dec-05 16:33N 51°53' E 004°26'0 0.0
2016-Dec-05 15:31N 51°53' E 004°26'0 0.0
2016-Dec-05 14:31N 51°53' E 004°26'1 1.1
2016-Dec-05 13:33N 51°54' E 004°24'1 1.1
2016-Dec-05 12:31N 51°53' E 004°25'0 0.0
2016-Dec-05 11:31N 51°53' E 004°25'0 0.0
2016-Dec-05 10:31N 51°53' E 004°25'0 0.0
2016-Dec-05 09:33N 51°53' E 004°25'0 0.0
2016-Dec-05 08:33N 51°53' E 004°25'0 0.0
2016-Dec-05 07:33N 51°53' E 004°25'0 0.0
2016-Dec-05 06:30N 51°53' E 004°25'0 0.0
2016-Dec-05 05:33N 51°53' E 004°25'0 0.0
2016-Dec-05 04:33N 51°53' E 004°25'0 0.0
2016-Dec-05 03:33N 51°53' E 004°25'2 1.7
2016-Dec-05 02:34N 51°54' E 004°23'1211.7
2016-Dec-05 01:33N 51°59' E 004°06'2 2.1
2016-Dec-05 00:33N 51°57' E 004°04'0 0.0
2016-Dec-04 23:32N 51°57' E 004°04'0 0.0
2016-Dec-04 22:33N 51°57' E 004°04'0 0.0
2016-Dec-04 21:33N 51°57' E 004°04'0 0.0
2016-Dec-04 20:33N 51°57' E 004°04'0 0.0
2016-Dec-04 19:33N 51°57' E 004°04'0 0.0
2016-Dec-04 18:33N 51°57' E 004°04'3 2.6
2016-Dec-04 17:34N 51°58' E 003°60'1 0.8
2016-Dec-04 16:32N 51°57' E 003°59'0 0.0
2016-Dec-04 15:33N 51°57' E 003°59'0 0.0
2016-Dec-04 14:33N 51°57' E 003°59'0 0.0
2016-Dec-04 13:33N 51°57' E 003°59'0 0.0
2016-Dec-04 12:31N 51°57' E 003°59'0 0.0
2016-Dec-04 11:33N 51°57' E 003°59'0 0.5
2016-Dec-04 10:34N 51°57' E 003°60'3 2.9
2016-Dec-04 09:34N 51°59' E 004°04'1110.7
2016-Dec-04 08:33N 51°57' E 003°47'0 0.4
2016-Dec-04 07:31N 51°57' E 003°46'0 0.1
2016-Dec-04 06:33N 51°57' E 003°46'1211.8
2016-Dec-04 05:33N 51°55' E 003°28'4514.6
2016-Dec-04 02:28N 51°36' E 002°22'1414.9
2016-Dec-04 01:33N 51°24' E 002°11'1514.5
2016-Dec-04 00:33N 51°12' E 001°59'1514.8
2016-Dec-03 23:33N 51°03' E 001°40'1414.2
2016-Dec-03 22:33N 50°51' E 001°28'4313.9
2016-Dec-03 19:26N 50°27' E 000°31'1314.2
2016-Dec-03 18:33N 50°23' E 000°13'1313.3
2016-Dec-03 17:33N 50°19' W 000°07'2912.7
2016-Dec-03 15:17N 50°12' W 000°51'912.5
2016-Dec-03 14:33N 50°09' W 001°04'1313.1
2016-Dec-03 13:33N 50°05' W 001°24'1414.4
2016-Dec-03 12:33N 50°01' W 001°46'3316.2
2016-Dec-03 10:31N 49°53' W 002°35'1616.5
2016-Dec-03 09:33N 49°47' W 002°58'1816.8
2016-Dec-03 08:29N 49°38' W 003°22'8417.0
2016-Dec-03 03:31N 48°55' W 005°13'8514.2
2016-Dec-02 21:31N 47°30' W 005°10'6416.2
2016-Dec-02 17:33N 46°29' W 004°38'5216.8
2016-Dec-02 14:27N 45°40' W 004°13'65 1.4
2016-Nov-30 14:18N 46°40' W 004°50'1614.4
2016-Nov-30 13:12N 46°55' W 004°58'914.1
2016-Nov-30 12:34N 47°03' W 005°02'1414.2
2016-Nov-30 11:32N 47°17' W 005°10'1814.3
2016-Nov-30 10:18N 47°33' W 005°19'7315.3
2016-Nov-30 05:31N 48°43' W 005°54'1313.8
2016-Nov-30 04:33N 48°54' W 005°44'1413.8
2016-Nov-30 03:33N 49°00' W 005°25'1514.0
2016-Nov-30 02:29N 49°08' W 005°05'1414.6
2016-Nov-30 01:33N 49°15' W 004°47'1715.6
2016-Nov-30 00:29N 49°23' W 004°25'6615.8
2016-Nov-29 20:18N 49°57' W 002°57'1113.7
2016-Nov-29 19:28N 50°00' W 002°40'1313.3
2016-Nov-29 18:30N 50°04' W 002°21'1313.7
2016-Nov-29 17:34N 50°07' W 002°02'1515.2
2016-Nov-29 16:33N 50°12' W 001°39'1716.9
2016-Nov-29 15:33N 50°16' W 001°13'1818.1
2016-Nov-29 14:33N 50°21' W 000°46'1817.6
2016-Nov-29 13:34N 50°25' W 000°19'1716.6
2016-Nov-29 12:33N 50°30' E 000°06'3615.5
2016-Nov-29 10:13N 50°46' E 000°57'1116.7
2016-Nov-29 09:33N 50°52' E 001°12'1818.3
2016-Nov-29 08:34N 51°04' E 001°33'2019.8
2016-Nov-29 07:34N 51°20' E 001°54'1919.2
2016-Nov-29 06:33N 51°35' E 002°12'1918.2
2016-Nov-29 05:32N 51°49' E 002°32'1717.1
2016-Nov-29 04:33N 52°01' E 002°51'1717.3
2016-Nov-29 03:33N 52°02' E 003°20'1716.6
2016-Nov-29 02:33N 52°03' E 003°46'1414.0
2016-Nov-29 01:33N 51°58' E 004°08'1111.4
2016-Nov-29 00:34N 51°53' E 004°24'1 0.7
2016-Nov-28 23:33N 51°53' E 004°25'0 0.0
2016-Nov-28 22:33N 51°53' E 004°25'0 0.0
2016-Nov-28 21:33N 51°53' E 004°25'0 0.0
2016-Nov-28 20:33N 51°53' E 004°25'0 0.0
2016-Nov-28 19:33N 51°53' E 004°25'3 2.6
2016-Nov-28 18:33N 51°54' E 004°21'1111.2
2016-Nov-28 17:33N 51°59' E 004°05'4 3.7
2016-Nov-28 16:33N 51°57' E 003°60'0 0.0
2016-Nov-28 15:28N 51°57' E 003°60'0 0.0
2016-Nov-28 14:32N 51°57' E 003°60'0 0.0
2016-Nov-28 13:31N 51°57' E 003°60'0 0.0
2016-Nov-28 12:28N 51°57' E 003°60'0 0.0
2016-Nov-28 11:33N 51°57' E 003°60'0 0.0
2016-Nov-28 10:33N 51°57' E 003°60'0 0.4
2016-Nov-28 09:33N 51°57' E 003°59'3 3.2
2016-Nov-28 08:33N 51°57' E 004°04'0 0.0
2016-Nov-28 07:29N 51°57' E 004°04'0 0.0
2016-Nov-28 06:33N 51°57' E 004°04'0 0.0
2016-Nov-28 05:31N 51°57' E 004°04'0 0.0
2016-Nov-28 04:32N 51°57' E 004°04'0 0.0
2016-Nov-28 03:32N 51°57' E 004°04'0 0.0
2016-Nov-28 02:33N 51°57' E 004°04'0 0.0
2016-Nov-28 01:33N 51°57' E 004°04'0 0.0
2016-Nov-28 00:33N 51°57' E 004°04'6 5.6
2016-Nov-27 23:33N 51°60' E 003°57'8 7.6
2016-Nov-27 22:30N 51°56' E 003°45'0 0.0
2016-Nov-27 20:33N 51°56' E 003°45'0 0.0
2016-Nov-27 19:30N 51°56' E 003°45'0 0.0
2016-Nov-27 18:30N 51°56' E 003°45'0 0.0
2016-Nov-27 17:33N 51°56' E 003°45'4 4.5
2016-Nov-27 16:33N 51°57' E 003°38'4414.6
2016-Nov-27 13:32N 51°41' E 002°32'1414.8
2016-Nov-27 12:33N 51°30' E 002°17'1514.8
2016-Nov-27 11:33N 51°17' E 002°06'1716.5
2016-Nov-27 10:33N 51°07' E 001°45'1515.4
2016-Nov-27 09:34N 50°55' E 001°29'1615.1
2016-Nov-27 08:31N 50°41' E 001°19'4515.1
2016-Nov-27 05:33N 50°22' E 000°16'1414.4
2016-Nov-27 04:33N 50°19' W 000°06'3013.2
2016-Nov-27 02:17N 50°11' W 000°51'911.9
2016-Nov-27 01:33N 50°09' W 001°05'1111.2
2016-Nov-27 00:33N 50°06' W 001°21'1210.8
2016-Nov-26 23:29N 50°03' W 001°39'1011.1
2016-Nov-26 22:33N 50°00' W 001°54'2712.9
2016-Nov-26 20:27N 49°52' W 002°35'1314.1
2016-Nov-26 19:34N 49°49' W 002°53'1414.1
2016-Nov-26 18:33N 49°41' W 003°12'1413.9
2016-Nov-26 17:33N 49°34' W 003°30'  
Track history (hours):
 
Tides and Currents Weather Stations Pressure Air Temp Water Temp Dewpoint Dewpoint Depression Visibility Wind Speed Wind Dir Waves Ship Positions

Euro Snow

Last reported at 2016-Dec-06 11:22 UTC. Time now 2016-Dec-06 12:11 UTC.
Position N 50°43' E 000°50'.

Length 133 m; draft 6.3 m.

Type: Ship (hazmat cat A). MMSI: 235613000.

Date/timePositionNaut miles runAvg speedWind from/ knotsBaromVisibWave heightAir tempDewpointWater temp
2016-Dec-06 11:22N 50°43' E 000°50'1416.8
2016-Dec-06 10:32N 50°51' E 001°08'1818.5
2016-Dec-06 09:33N 51°03' E 001°30'1818.0
2016-Dec-06 08:33N 51°16' E 001°50'1716.8
2016-Dec-06 07:33N 51°29' E 002°05'1616.1
2016-Dec-06 06:33N 51°41' E 002°22'1616.0
2016-Dec-06 05:33N 51°53' E 002°39'1615.8
2016-Dec-06 04:33N 52°03' E 002°59'1716.9
2016-Dec-06 03:33N 52°04' E 003°27'1716.9
2016-Dec-06 02:33N 52°02' E 003°54'1515.1
2016-Dec-06 01:34N 51°55' E 004°15'7 6.3
2016-Dec-06 00:32N 51°53' E 004°26'0 0.0
2016-Dec-05 23:33N 51°53' E 004°26'0 0.0
2016-Dec-05 22:32N 51°53' E 004°26'0 0.0
2016-Dec-05 21:32N 51°53' E 004°26'0 0.0
2016-Dec-05 20:33N 51°53' E 004°26'0 0.0
2016-Dec-05 19:33N 51°53' E 004°26'0 0.0
2016-Dec-05 18:32N 51°53' E 004°26'0 0.0
2016-Dec-05 17:33N 51°53' E 004°26'0 0.0
2016-Dec-05 16:33N 51°53' E 004°26'0 0.0
2016-Dec-05 15:31N 51°53' E 004°26'0 0.0
2016-Dec-05 14:31N 51°53' E 004°26'1 1.1
2016-Dec-05 13:33N 51°54' E 004°24'1 1.1
2016-Dec-05 12:31N 51°53' E 004°25'0 0.0
2016-Dec-05 11:31N 51°53' E 004°25'0 0.0
2016-Dec-05 10:31N 51°53' E 004°25'0 0.0
2016-Dec-05 09:33N 51°53' E 004°25'0 0.0
2016-Dec-05 08:33N 51°53' E 004°25'0 0.0
2016-Dec-05 07:33N 51°53' E 004°25'0 0.0
2016-Dec-05 06:30N 51°53' E 004°25'0 0.0
2016-Dec-05 05:33N 51°53' E 004°25'0 0.0
2016-Dec-05 04:33N 51°53' E 004°25'0 0.0
2016-Dec-05 03:33N 51°53' E 004°25'2 1.7
2016-Dec-05 02:34N 51°54' E 004°23'1211.7
2016-Dec-05 01:33N 51°59' E 004°06'2 2.1
2016-Dec-05 00:33N 51°57' E 004°04'0 0.0
2016-Dec-04 23:32N 51°57' E 004°04'0 0.0
2016-Dec-04 22:33N 51°57' E 004°04'0 0.0
2016-Dec-04 21:33N 51°57' E 004°04'0 0.0
2016-Dec-04 20:33N 51°57' E 004°04'0 0.0
2016-Dec-04 19:33N 51°57' E 004°04'0 0.0
2016-Dec-04 18:33N 51°57' E 004°04'3 2.6
2016-Dec-04 17:34N 51°58' E 003°60'1 0.8
2016-Dec-04 16:32N 51°57' E 003°59'0 0.0
2016-Dec-04 15:33N 51°57' E 003°59'0 0.0
2016-Dec-04 14:33N 51°57' E 003°59'0 0.0
2016-Dec-04 13:33N 51°57' E 003°59'0 0.0
2016-Dec-04 12:31N 51°57' E 003°59'0 0.0
2016-Dec-04 11:33N 51°57' E 003°59'0 0.5
2016-Dec-04 10:34N 51°57' E 003°60'3 2.9
2016-Dec-04 09:34N 51°59' E 004°04'1110.7
2016-Dec-04 08:33N 51°57' E 003°47'0 0.4
2016-Dec-04 07:31N 51°57' E 003°46'0 0.1
2016-Dec-04 06:33N 51°57' E 003°46'1211.8
2016-Dec-04 05:33N 51°55' E 003°28'4514.6
2016-Dec-04 02:28N 51°36' E 002°22'1414.9
2016-Dec-04 01:33N 51°24' E 002°11'1514.5
2016-Dec-04 00:33N 51°12' E 001°59'1514.8
2016-Dec-03 23:33N 51°03' E 001°40'1414.2
2016-Dec-03 22:33N 50°51' E 001°28'4313.9
2016-Dec-03 19:26N 50°27' E 000°31'1314.2
2016-Dec-03 18:33N 50°23' E 000°13'1313.3
2016-Dec-03 17:33N 50°19' W 000°07'2912.7
2016-Dec-03 15:17N 50°12' W 000°51'912.5
2016-Dec-03 14:33N 50°09' W 001°04'1313.1
2016-Dec-03 13:33N 50°05' W 001°24'1414.4
2016-Dec-03 12:33N 50°01' W 001°46'3316.2
2016-Dec-03 10:31N 49°53' W 002°35'1616.5
2016-Dec-03 09:33N 49°47' W 002°58'1816.8
2016-Dec-03 08:29N 49°38' W 003°22'8417.0
2016-Dec-03 03:31N 48°55' W 005°13'8514.2
2016-Dec-02 21:31N 47°30' W 005°10'6416.2
2016-Dec-02 17:33N 46°29' W 004°38'5216.8
2016-Dec-02 14:27N 45°40' W 004°13'65 1.4
2016-Nov-30 14:18N 46°40' W 004°50'1614.4
2016-Nov-30 13:12N 46°55' W 004°58'914.1
2016-Nov-30 12:34N 47°03' W 005°02'1414.2
2016-Nov-30 11:32N 47°17' W 005°10'1814.3
2016-Nov-30 10:18N 47°33' W 005°19'7315.3
2016-Nov-30 05:31N 48°43' W 005°54'1313.8
2016-Nov-30 04:33N 48°54' W 005°44'1413.8
2016-Nov-30 03:33N 49°00' W 005°25'1514.0
2016-Nov-30 02:29N 49°08' W 005°05'1414.6
2016-Nov-30 01:33N 49°15' W 004°47'1715.6
2016-Nov-30 00:29N 49°23' W 004°25'6615.8
2016-Nov-29 20:18N 49°57' W 002°57'1113.7
2016-Nov-29 19:28N 50°00' W 002°40'1313.3
2016-Nov-29 18:30N 50°04' W 002°21'1313.7
2016-Nov-29 17:34N 50°07' W 002°02'1515.2
2016-Nov-29 16:33N 50°12' W 001°39'1716.9
2016-Nov-29 15:33N 50°16' W 001°13'1818.1
2016-Nov-29 14:33N 50°21' W 000°46'1817.6
2016-Nov-29 13:34N 50°25' W 000°19'1716.6
2016-Nov-29 12:33N 50°30' E 000°06'3615.5
2016-Nov-29 10:13N 50°46' E 000°57'1116.7
2016-Nov-29 09:33N 50°52' E 001°12'1818.3
2016-Nov-29 08:34N 51°04' E 001°33'2019.8
2016-Nov-29 07:34N 51°20' E 001°54'1919.2
2016-Nov-29 06:33N 51°35' E 002°12'1918.2
2016-Nov-29 05:32N 51°49' E 002°32'1717.1
2016-Nov-29 04:33N 52°01' E 002°51'1717.3
2016-Nov-29 03:33N 52°02' E 003°20'1716.6
2016-Nov-29 02:33N 52°03' E 003°46'1414.0
2016-Nov-29 01:33N 51°58' E 004°08'1111.4
2016-Nov-29 00:34N 51°53' E 004°24'1 0.7
2016-Nov-28 23:33N 51°53' E 004°25'0 0.0
2016-Nov-28 22:33N 51°53' E 004°25'0 0.0
2016-Nov-28 21:33N 51°53' E 004°25'0 0.0
2016-Nov-28 20:33N 51°53' E 004°25'0 0.0
2016-Nov-28 19:33N 51°53' E 004°25'3 2.6
2016-Nov-28 18:33N 51°54' E 004°21'1111.2
2016-Nov-28 17:33N 51°59' E 004°05'4 3.7
2016-Nov-28 16:33N 51°57' E 003°60'0 0.0
2016-Nov-28 15:28N 51°57' E 003°60'0 0.0
2016-Nov-28 14:32N 51°57' E 003°60'0 0.0
2016-Nov-28 13:31N 51°57' E 003°60'0 0.0
2016-Nov-28 12:28N 51°57' E 003°60'0 0.0
2016-Nov-28 11:33N 51°57' E 003°60'0 0.0
2016-Nov-28 10:33N 51°57' E 003°60'0 0.4
2016-Nov-28 09:33N 51°57' E 003°59'3 3.2
2016-Nov-28 08:33N 51°57' E 004°04'0 0.0
2016-Nov-28 07:29N 51°57' E 004°04'0 0.0
2016-Nov-28 06:33N 51°57' E 004°04'0 0.0
2016-Nov-28 05:31N 51°57' E 004°04'0 0.0
2016-Nov-28 04:32N 51°57' E 004°04'0 0.0
2016-Nov-28 03:32N 51°57' E 004°04'0 0.0
2016-Nov-28 02:33N 51°57' E 004°04'0 0.0
2016-Nov-28 01:33N 51°57' E 004°04'0 0.0
2016-Nov-28 00:33N 51°57' E 004°04'6 5.6
2016-Nov-27 23:33N 51°60' E 003°57'8 7.6
2016-Nov-27 22:30N 51°56' E 003°45'0 0.0
2016-Nov-27 20:33N 51°56' E 003°45'0 0.0
2016-Nov-27 19:30N 51°56' E 003°45'0 0.0
2016-Nov-27 18:30N 51°56' E 003°45'0 0.0
2016-Nov-27 17:33N 51°56' E 003°45'4 4.5
2016-Nov-27 16:33N 51°57' E 003°38'4414.6
2016-Nov-27 13:32N 51°41' E 002°32'1414.8
2016-Nov-27 12:33N 51°30' E 002°17'1514.8
2016-Nov-27 11:33N 51°17' E 002°06'1716.5
2016-Nov-27 10:33N 51°07' E 001°45'1515.4
2016-Nov-27 09:34N 50°55' E 001°29'1615.1
2016-Nov-27 08:31N 50°41' E 001°19'4515.1
2016-Nov-27 05:33N 50°22' E 000°16'1414.4
2016-Nov-27 04:33N 50°19' W 000°06'3013.2
2016-Nov-27 02:17N 50°11' W 000°51'911.9
2016-Nov-27 01:33N 50°09' W 001°05'1111.2
2016-Nov-27 00:33N 50°06' W 001°21'1210.8
2016-Nov-26 23:29N 50°03' W 001°39'1011.1
2016-Nov-26 22:33N 50°00' W 001°54'2712.9
2016-Nov-26 20:27N 49°52' W 002°35'1314.1
2016-Nov-26 19:34N 49°49' W 002°53'1414.1
2016-Nov-26 18:33N 49°41' W 003°12'1413.9
2016-Nov-26 17:33N 49°34' W 003°30'  

Dump ship's entire track history